KIAD

Washington Dulles International Airport

Washington, Virginia, USA
METAR KIAD 231952Z 22011KT 10SM SCT085 21/03 A2997 RMK AO2 SLP147 T02060028
Observed Flight Rules
Oct-23 @ 19:52 UTC (52 minutes ago) Visual Flight Rules
Wind Visibility Clouds
220° at 11 knots 10 miles
  • Scattered at 8,500' AGL
Temperatures Readings
Current 21°C / 70°F
Dewpoint 3°C / 37°F
Humidity 31%
Altimeter 29.97" Hg
Pressure 1014.7 hPa
Elevation 93
METAR KIAD 231952Z 22011KT 10SM SCT085 21/03 A2997 RMK AO2 SLP147 T02060028
Observed Flight Rules
Oct-23 @ 19:52 UTC
(52 minutes ago)
VFR
Wind Visibility
220° at 11 knots 10 miles
Clouds
  • Scattered at 8,500' AGL
Temperature Dewpoint
21°C / 70°F 3°C / 37°F
Humidity Altimeter Pressure
31% 29.97" Hg 1014.7 hPa